Date,TemperatureHighF,TemperatureAvgF,TemperatureLowF,DewpointHighF,DewpointAvgF,DewpointLowF,HumidityHigh,HumidityAvg,HumidityLow,PressureMaxIn,PressureMinIn,WindSpeedMaxMPH,WindSpeedAvgMPH,GustSpeedMaxMPH,PrecipitationSumIn
2013-3-11,48,47,47,46,45,44,95,93,88,29.69,29.67,2,0,9,0.00
2013-3-12,57,50,44,47,45,43,99,85,64,30.11,29.21,23,5,25,0.00
2013-3-13,65,53,45,48,44,40,92,73,49,30.16,30.05,12,4,19,0.00
2013-3-14,64,50,44,46,43,39,95,79,44,30.13,29.99,20,4,27,0.00
2013-3-15,59,51,45,47,45,43,99,81,61,30.18,30.07,15,4,19,0.00
2013-3-16,50,44,34,45,41,32,98,87,65,30.08,29.85,35,7,41,0.16
2013-3-17,45,39,33,34,32,29,99,77,54,30.14,29.95,33,12,43,0.01
2013-3-18,51,42,35,35,32,30,89,70,47,30.15,30.11,26,8,32,0.00
2013-3-19,46,38,30,38,32,28,100,81,54,30.13,29.79,13,1,15,0.27
2013-3-20,53,40,35,41,36,29,100,89,56,32.42,29.63,40,7,53,0.41
2013-3-21,45,38,35,34,30,28,87,73,56,32.60,30.09,29,14,40,0.51
2013-3-24,47,44,41,28,26,23,55,48,38,30.14,30.10,5,1,9,0.00
2013-3-25,57,45,32,34,28,23,77,54,31,32.03,29.95,16,2,17,0.01
2013-3-26,43,40,39,30,29,29,69,67,61,32.76,32.07,4,0,4,0.00
2013-3-29,66,57,50,47,45,43,82,67,43,30.15,30.10,8,1,9,0.00
2013-3-30,73,56,40,47,42,34,98,64,34,30.21,30.04,12,2,17,0.00
2013-3-31,74,57,41,46,40,31,87,56,29,30.04,29.88,11,2,15,0.00
2013-4-1,62,57,52,49,47,45,84,70,55,30.07,29.92,27,13,40,0.00
2013-4-2,62,56,50,48,45,44,84,69,51,30.14,30.06,25,12,32,0.00
2013-4-3,67,55,43,48,44,36,99,69,40,30.10,29.92,10,2,15,0.01
2013-4-4,58,52,50,54,48,45,99,87,75,29.92,29.72,12,1,15,0.12
2013-4-5,58,51,46,50,47,44,99,87,65,29.95,29.82,22,4,23,0.05
2013-4-6,52,46,41,46,43,39,100,90,67,30.07,29.82,20,4,26,0.40
2013-4-7,50,43,39,42,39,36,100,88,62,29.98,29.63,20,6,32,0.55
2013-4-8,55,46,40,41,37,33,86,72,54,30.52,29.98,25,11,27,0.00
2013-4-9,60,47,35,43,37,28,100,72,39,32.87,30.27,16,4,19,0.00
2013-4-10,48,48,48,40,40,40,75,75,75,0.00,0.00,3,3,0,0.00
2013-4-11,47,45,43,39,38,37,83,77,71,30.14,30.10,7,3,11,0.00
2013-4-12,53,44,33,42,36,27,100,76,46,30.10,29.72,23,6,30,0.00
2013-4-13,48,42,35,42,34,29,94,72,48,29.98,29.71,32,17,41,0.02
2013-4-14,52,43,38,37,34,30,89,70,45,29.99,29.86,21,8,27,0.00
2013-4-15,53,42,37,40,35,30,96,79,45,30.09,29.87,17,4,21,0.03
2013-4-16,56,43,34,40,35,25,100,75,33,30.34,30.09,12,2,16,0.00
2013-4-17,59,45,30,38,33,26,100,68,36,30.43,30.34,21,5,26,0.00
2013-4-18,56,49,45,46,39,34,93,67,52,30.40,30.24,26,12,30,0.00
2013-4-19,57,51,47,48,46,42,97,83,65,30.25,30.07,29,10,37,0.01
2013-4-20,56,51,47,45,41,38,90,68,54,30.26,30.18,27,14,34,0.00
2013-4-21,54,48,44,43,40,38,90,74,59,30.26,30.13,33,12,43,0.00
2013-4-22,62,49,35,41,32,23,100,57,26,30.46,30.26,16,2,21,0.00
2013-4-23,67,49,31,36,27,20,78,46,24,30.38,30.16,8,1,13,0.00
2013-4-24,75,55,35,39,31,23,72,43,20,30.71,30.09,6,1,12,0.00
2013-4-25,73,60,46,45,40,35,71,50,31,31.09,29.98,18,6,25,2.50
2013-4-26,77,64,49,46,41,34,84,48,24,30.21,30.10,19,9,25,0.00
2013-4-27,69,60,50,44,38,31,66,47,25,30.21,30.14,30,9,36,0.00
2013-4-28,63,55,49,47,43,37,90,65,40,30.21,29.98,23,10,31,0.00
2013-4-29,57,50,42,46,36,27,87,60,34,30.08,29.95,37,16,45,0.00
2013-4-30,53,44,40,33,30,26,70,58,41,30.36,30.08,24,8,32,0.00
2013-5-1,69,51,32,34,30,24,95,50,21,30.55,30.36,8,1,13,0.03
2013-5-2,79,59,38,43,32,23,67,39,19,30.52,30.22,9,1,15,0.00
2013-5-3,81,64,46,46,40,33,79,44,23,30.32,30.14,11,2,14,0.00
2013-5-4,83,66,47,43,37,32,76,38,18,30.18,29.98,14,1,20,0.00
2013-5-5,84,69,50,44,38,30,56,34,20,30.01,29.80,16,2,22,0.00
2013-5-6,84,67,49,52,44,36,68,45,24,29.98,29.74,16,4,21,0.00
2013-5-7,76,66,57,51,48,45,68,54,38,30.18,29.84,21,11,33,0.00
2013-5-8,70,63,55,53,50,46,79,64,50,31.79,29.98,23,12,28,0.00
2013-5-9,61,58,58,52,50,49,75,75,70,32.88,31.84,20,10,27,0.00
2013-5-12,69,67,65,55,53,52,63,61,58,32.93,30.74,23,13,31,0.00
2013-5-15,61,56,52,50,48,46,93,76,58,30.51,30.01,17,8,21,0.00
2013-5-16,72,57,47,53,48,42,100,76,39,30.07,29.79,17,4,27,0.00
2013-5-17,65,55,48,51,46,41,100,77,45,30.05,29.90,23,9,27,0.23
2013-5-18,60,53,49,49,47,43,97,80,58,30.23,30.05,26,9,31,0.00
2013-5-19,65,58,50,49,48,46,95,71,52,30.29,30.23,23,10,30,0.00
2013-5-20,75,60,43,50,46,40,100,64,34,30.32,29.82,15,4,22,0.00
2013-5-21,60,50,40,48,43,39,99,78,51,29.97,29.72,25,9,28,0.09
2013-5-22,47,43,41,45,41,38,100,93,84,30.01,29.94,11,3,15,0.18
2013-5-23,55,47,40,48,44,40,100,90,68,30.08,29.99,10,2,14,0.08
2013-5-24,60,51,44,49,46,42,100,83,55,30.09,29.98,19,6,25,0.27
2013-5-25,66,55,43,50,46,42,100,74,47,30.09,29.88,15,4,18,0.01
2013-5-26,65,56,50,53,50,46,100,80,54,30.00,29.92,20,6,28,0.25
2013-5-27,59,51,46,57,50,44,100,98,80,29.99,29.75,8,1,10,0.33
2013-5-28,63,55,48,53,49,46,100,81,58,29.89,29.78,27,6,29,0.00
2013-5-29,59,52,48,53,50,48,100,93,72,30.03,29.70,25,4,29,0.58
2013-5-30,63,54,46,49,46,42,100,76,49,30.23,30.03,25,9,29,0.00
2013-5-31,71,58,43,50,46,40,100,69,40,30.31,30.12,11,5,16,0.00
2013-6-1,75,61,47,54,50,46,100,69,42,30.23,29.91,16,5,22,0.00
2013-6-2,72,63,53,54,50,47,95,67,46,29.99,29.87,22,10,28,0.00
2013-6-3,74,62,49,54,51,48,100,69,44,30.07,29.86,19,8,27,0.00
2013-6-4,86,69,50,54,49,43,98,55,24,30.10,29.82,13,2,18,0.00
2013-6-5,83,70,53,59,51,44,83,55,29,30.04,29.79,23,6,24,0.00
2013-6-6,82,71,59,60,57,53,96,65,41,29.95,29.77,22,9,26,0.00
2013-6-7,77,67,60,56,47,35,74,51,25,30.03,29.89,28,12,36,0.00
2013-6-8,78,66,54,54,48,39,88,55,29,30.07,29.87,29,12,32,0.00
2013-6-9,73,63,53,55,49,45,88,62,38,30.01,29.81,30,12,34,0.00
2013-6-10,68,56,50,49,46,44,88,71,43,29.93,29.77,21,11,28,0.00
2013-6-11,63,56,51,48,44,41,82,66,48,30.10,29.87,31,13,36,0.00
2013-6-12,66,57,47,50,45,40,99,68,40,30.14,30.01,28,10,32,0.00
2013-6-13,64,56,49,51,47,44,99,74,51,30.21,30.08,29,11,34,0.00
2013-6-14,71,61,51,53,48,43,85,64,44,30.22,29.93,19,9,26,0.00
2013-6-15,85,67,47,56,48,41,99,59,22,30.00,29.70,14,4,23,0.00
2013-6-16,74,65,58,56,53,48,87,66,46,30.02,29.86,26,12,37,0.03
2013-6-17,77,67,58,56,52,48,88,62,37,30.02,29.77,20,9,28,0.00
2013-6-18,72,62,54,52,47,41,84,61,34,29.97,29.78,21,9,32,0.00
2013-6-19,55,54,53,49,47,46,83,78,75,29.92,29.89,22,10,29,0.00
2013-6-24,68,61,56,55,53,48,89,75,54,29.71,29.61,16,5,21,0.01
2013-6-25,68,58,53,61,56,53,100,95,63,29.89,29.71,12,1,18,0.31
2013-6-26,71,60,53,59,56,52,100,87,55,30.04,29.89,13,2,19,0.03
2013-6-27,82,68,56,63,58,52,100,75,44,30.11,29.97,14,3,17,0.00
2013-6-28,94,77,59,65,60,56,100,61,30,30.15,29.81,15,3,21,0.00
2013-6-29,87,76,66,65,60,57,83,61,41,29.98,29.79,19,10,26,0.00
2013-6-30,100,81,61,68,59,53,85,52,25,29.97,29.59,11,2,15,0.00
2013-7-1,88,78,67,67,64,60,91,66,45,29.87,29.71,19,7,24,0.00
2013-7-2,90,78,66,66,63,53,93,64,34,29.95,29.74,25,10,34,0.00
2013-7-3,84,78,68,55,51,42,61,40,31,29.98,29.80,28,15,31,0.00
2013-7-4,76,66,57,54,51,45,79,59,41,30.00,29.81,26,13,35,0.00
2013-7-5,73,64,57,55,51,48,82,64,49,29.93,29.78,29,13,33,0.00
2013-7-6,77,66,55,60,55,51,96,69,45,29.92,29.67,21,9,25,0.00
2013-7-7,79,68,59,60,57,54,95,69,45,29.86,29.66,27,12,29,0.00
2013-7-8,81,69,58,61,56,52,91,67,41,29.95,29.81,26,12,30,0.00
2013-7-9,87,74,58,63,57,51,92,60,35,30.04,29.76,16,6,23,0.00
2013-7-10,84,72,61,62,55,49,86,59,33,29.96,29.71,25,11,29,0.00
2013-7-11,75,64,54,52,48,44,82,57,37,29.97,29.78,29,13,33,0.00
2013-7-12,74,64,54,51,49,46,84,60,39,30.01,29.84,25,14,33,0.00
2013-7-13,85,68,53,56,46,26,91,52,13,30.13,29.85,14,5,17,0.00
2013-7-14,89,71,52,54,47,36,86,47,18,30.09,29.74,17,5,27,0.00
2013-7-15,92,74,58,54,47,43,74,43,20,29.96,29.62,17,5,23,0.00
2013-7-16,88,74,60,59,48,38,60,40,22,29.87,29.64,15,3,29,0.00
2013-7-17,80,71,62,58,54,45,82,58,29,30.05,29.79,26,11,31,0.00
2013-7-18,83,70,57,58,56,51,98,63,35,30.11,29.85,21,11,27,0.00
2013-7-19,82,71,60,62,58,54,90,65,43,30.03,29.79,20,11,27,0.00
2013-7-20,78,70,60,62,59,55,98,70,50,29.94,29.71,29,13,36,0.00
2013-7-21,83,70,59,60,56,53,93,64,40,29.84,29.64,31,14,35,0.00
2013-7-22,70,68,67,59,59,58,75,72,68,29.80,29.77,16,7,29,0.00
2013-7-26,77,73,69,60,56,52,58,56,55,29.96,29.88,21,13,31,0.00
2013-7-27,80,69,58,53,48,45,71,50,32,30.05,29.79,33,16,38,0.00
2013-7-28,75,65,56,54,51,47,83,62,37,29.93,29.77,31,15,36,0.00
2013-7-29,80,66,55,56,52,46,91,63,32,29.93,29.74,19,10,25,0.00
2013-7-30,84,71,60,59,55,43,90,59,25,30.02,29.85,18,10,26,0.00
2013-7-31,69,68,68,56,55,54,66,62,58,29.98,29.97,13,9,18,0.00
2013-8-1,70,64,60,56,55,53,87,72,58,30.01,29.90,33,17,39,0.00
2013-8-2,70,64,58,56,53,50,85,69,53,30.05,29.97,21,12,30,0.00
2013-8-3,85,70,56,61,56,50,100,66,33,30.07,29.82,12,5,18,0.00
2013-8-4,93,75,57,62,56,47,97,58,22,30.01,29.68,15,3,23,0.00
2013-8-5,89,75,61,63,60,56,98,62,35,29.93,29.67,19,7,26,0.00
2013-8-6,90,76,60,63,56,44,98,54,27,29.91,29.68,21,7,24,0.00
2013-8-7,89,75,62,58,54,50,79,51,31,29.91,29.68,22,12,30,0.00
2013-8-8,80,71,62,63,58,55,80,64,47,29.91,29.72,22,11,30,0.00
2013-8-9,82,70,63,67,61,57,100,75,47,29.90,29.61,22,8,30,0.32
2013-8-10,78,68,61,64,62,57,100,80,55,29.91,29.78,18,7,27,0.00
2013-8-11,80,70,63,62,58,52,88,66,40,29.97,29.80,20,9,24,0.00
2013-8-12,82,69,57,60,57,54,100,68,41,30.00,29.80,19,8,27,0.00
2013-8-13,87,72,58,59,55,50,98,61,29,30.04,29.73,17,7,20,0.00
2013-8-14,84,71,60,59,54,48,80,56,36,29.91,29.74,20,6,24,0.00
2013-8-15,82,72,63,64,59,54,82,63,45,29.89,29.76,20,6,27,0.00
2013-8-16,81,72,65,66,63,59,100,75,52,29.93,29.80,18,6,21,0.01
2013-8-17,82,72,63,64,58,53,90,63,41,30.00,29.82,24,9,30,0.00
2013-8-18,83,72,61,61,58,51,97,65,34,30.05,29.84,23,10,28,0.00
2013-8-19,84,72,61,59,55,49,89,58,35,30.01,29.83,24,10,30,0.00
2013-8-20,83,73,59,59,55,50,90,55,35,30.05,29.79,18,8,22,0.00
2013-8-21,90,72,54,55,48,41,88,49,21,30.03,29.74,16,2,20,0.00
2013-8-22,76,68,59,63,52,43,96,59,44,29.89,29.72,11,2,19,0.06
2013-8-23,74,68,62,65,58,53,100,72,48,29.83,29.73,23,9,29,0.02
2013-8-24,77,68,60,59,55,51,93,66,41,29.85,29.70,23,8,29,0.00
2013-8-25,70,62,57,61,57,50,100,85,55,29.90,29.79,16,4,21,0.23
2013-8-26,79,64,55,60,56,52,100,78,45,29.95,29.77,15,3,19,0.00
2013-8-27,86,69,53,61,55,48,100,64,31,29.97,29.61,18,4,25,0.01
2013-8-28,83,73,62,63,60,56,94,65,42,29.81,29.67,16,7,22,0.00
2013-8-29,77,69,63,65,61,57,100,77,52,29.98,29.79,17,5,26,0.03
2013-8-30,81,71,64,64,59,54,99,70,43,30.07,29.89,16,7,21,0.00
2013-8-31,91,73,55,59,54,49,100,58,26,30.03,29.63,10,2,17,0.00
2013-9-1,85,72,62,59,57,54,87,60,40,29.83,29.59,21,7,28,0.00
2013-9-2,85,73,64,60,56,53,73,57,38,29.83,29.66,20,9,26,0.00
2013-9-3,81,71,64,60,57,54,75,61,42,29.90,29.75,19,9,28,0.00
2013-9-4,78,69,62,59,57,55,86,68,47,29.93,29.82,20,9,34,0.00
2013-9-5,72,64,57,62,58,56,100,84,60,29.99,29.77,22,9,28,0.17
2013-9-6,68,60,56,60,57,54,100,90,63,30.09,29.97,20,4,24,0.45
2013-9-7,82,66,53,63,55,50,100,72,36,30.10,29.81,8,1,11,0.00
2013-9-8,87,70,55,64,56,48,97,64,28,30.07,29.79,13,2,15,0.00
2013-9-9,84,70,58,65,61,54,100,74,46,29.98,29.73,18,5,23,0.00
2013-9-10,93,75,58,64,56,48,100,61,23,29.95,29.66,16,2,19,0.00
2013-9-11,96,77,61,58,53,49,77,47,24,29.95,29.67,13,2,17,0.00
2013-9-12,86,73,61,65,58,53,87,63,40,29.94,29.67,19,5,19,0.00
2013-9-13,82,74,65,63,62,59,92,67,49,29.83,29.62,19,11,29,0.00
2013-9-14,95,73,59,68,60,52,100,72,24,29.81,29.47,16,4,21,0.00
2013-9-15,74,67,62,65,61,57,100,82,60,29.80,29.59,33,11,41,0.00
2013-9-16,70,64,59,57,54,51,89,72,56,29.89,29.79,21,12,30,0.00
2013-9-17,69,60,56,57,52,45,98,75,43,29.91,29.73,24,11,33,0.00
2013-9-18,70,60,52,52,48,44,85,66,41,30.05,29.91,21,8,29,0.00
2013-9-19,80,60,43,47,43,38,100,62,25,30.10,29.71,13,2,18,0.00
2013-9-20,77,61,47,58,46,35,100,61,27,29.80,29.50,27,4,33,0.06
2013-9-21,71,59,52,57,53,49,100,84,47,29.70,29.58,14,2,19,0.00
2013-9-30,57,52,48,53,49,43,100,91,66,30.04,29.80,14,4,27,0.18
2013-10-1,54,47,42,50,46,42,100,96,67,30.26,30.03,10,2,15,0.18
2013-10-2,56,46,42,47,44,41,100,93,63,30.26,30.05,10,3,19,0.01
2013-10-3,54,46,42,45,43,40,100,88,67,30.36,30.18,12,4,14,0.00
2013-10-4,66,54,42,48,43,40,100,69,39,30.59,30.32,5,0,8,0.00
2013-10-5,71,52,38,48,40,34,100,69,31,30.46,30.11,7,1,12,0.00
2013-10-6,71,58,43,53,42,36,77,57,37,30.21,29.87,5,1,9,0.00
2013-10-7,58,52,49,52,46,44,100,82,65,30.08,29.99,24,9,24,0.00
2013-10-8,53,49,43,48,45,41,100,86,70,30.08,29.94,21,6,31,0.00
2013-10-9,59,47,38,48,42,34,100,85,46,30.18,29.96,6,0,7,0.00
2013-10-10,60,51,46,48,45,36,100,81,46,30.07,29.89,23,8,32,0.00
2013-10-11,57,50,44,48,45,41,100,85,57,30.15,30.06,14,3,17,0.00
2013-10-12,54,49,43,48,46,42,100,89,68,30.21,30.06,10,4,13,0.00
2013-10-13,66,50,39,50,41,36,100,77,40,30.35,30.14,6,1,7,0.00
2013-10-14,65,48,37,43,39,34,100,75,36,30.46,30.27,11,1,12,0.00
2013-10-15,65,48,34,43,37,32,100,70,36,30.48,30.15,8,1,12,0.00
2013-10-16,66,49,36,45,38,32,100,71,36,30.24,30.05,7,1,10,0.00
2013-10-17,67,51,37,44,39,34,100,68,37,30.33,30.13,6,0,10,0.00
2013-10-18,67,50,35,46,39,32,100,69,35,30.36,30.09,7,0,10,0.00
2013-10-19,67,50,36,50,40,31,100,73,38,30.24,29.98,5,1,6,0.00
2013-10-20,71,52,39,54,43,36,100,74,39,30.24,29.99,5,1,7,0.00
2013-10-21,73,55,41,49,43,34,98,69,35,30.23,29.98,8,1,12,0.00
2013-10-22,71,54,41,48,44,36,100,71,39,30.23,29.96,10,1,11,0.00
2013-10-23,70,54,40,50,44,36,100,74,43,30.17,29.95,10,1,11,0.00
2013-10-24,68,52,41,54,44,37,100,77,46,30.17,29.94,5,1,7,0.00
2013-10-25,67,51,41,54,45,38,100,84,48,30.28,30.09,5,1,9,0.00
2013-10-26,63,50,44,54,47,41,100,90,55,30.33,30.12,5,0,6,0.00
2013-10-27,54,48,45,48,46,40,100,94,61,30.17,29.81,29,6,38,0.06
2013-10-28,58,48,36,46,33,26,92,58,33,30.03,29.83,10,2,12,0.00
2013-10-29,57,41,29,34,28,22,95,64,29,30.14,29.95,7,0,7,0.01
2013-10-30,58,45,30,38,34,30,100,69,39,30.17,30.04,24,7,31,0.00
2013-10-31,59,52,49,51,46,34,100,80,56,30.27,30.11,17,8,25,0.00
2013-11-1,63,51,39,49,44,38,100,80,47,30.33,29.94,5,1,9,0.00
2013-11-2,53,46,38,50,43,36,100,89,60,30.05,29.71,29,8,36,0.81
2013-11-3,49,42,39,42,39,33,100,89,58,30.15,30.01,20,6,25,0.14
2013-11-4,44,40,37,43,39,37,100,97,85,30.22,30.14,7,0,10,0.01
2013-11-5,48,44,39,48,43,39,100,100,94,30.24,30.13,14,1,14,0.10
2013-11-6,49,45,33,48,45,33,100,99,90,30.35,30.23,9,1,12,0.29
2013-11-7,47,44,38,47,42,30,100,95,78,30.27,29.91,19,3,30,0.23
2013-11-8,50,46,40,45,42,39,100,89,73,30.21,30.05,15,3,19,0.04
2013-11-9,47,42,37,44,40,37,100,95,84,30.22,30.13,3,0,4,0.00
2013-11-10,52,44,39,45,41,38,100,91,69,30.28,30.13,4,0,6,0.00
2013-11-11,47,45,42,44,42,41,100,92,82,30.37,30.25,7,1,9,0.00
2013-11-12,53,46,43,50,45,40,100,94,66,30.41,30.25,9,1,11,0.09
2013-11-13,57,48,37,48,45,35,100,89,57,30.46,30.32,14,3,15,0.00
2013-11-14,51,44,38,43,40,38,100,88,67,30.32,30.06,20,6,28,0.00
2013-11-15,46,44,42,42,39,36,96,84,72,30.07,29.46,27,9,31,0.00
2013-11-16,46,42,39,44,40,36,100,90,71,29.82,29.44,31,15,36,0.12
2013-11-17,48,44,41,47,44,39,100,97,81,30.00,29.82,11,1,26,0.03
2013-11-18,48,43,40,46,43,40,100,99,91,30.00,29.86,3,0,8,0.00
2013-11-19,45,42,39,41,37,32,85,80,71,29.98,29.83,18,10,21,0.00
2013-11-20,43,34,22,34,24,14,100,69,36,30.60,29.98,22,3,28,0.00
2013-11-21,41,28,17,21,17,12,100,70,31,30.84,30.60,5,0,10,0.00
2013-11-22,39,27,17,22,19,14,100,74,44,30.91,30.73,10,1,12,0.00
2013-11-23,41,29,19,25,21,15,100,77,43,30.76,30.48,7,1,11,0.00
2013-11-24,41,29,20,26,23,17,100,81,47,30.54,30.34,7,0,8,0.00
2013-11-25,44,30,21,29,24,18,100,80,46,30.61,30.43,9,0,9,0.00
2013-11-26,40,31,23,29,26,20,100,84,57,30.50,30.29,3,0,5,0.00
2013-11-27,40,31,25,31,28,25,100,89,58,30.34,30.19,5,0,7,0.00
2013-11-28,45,31,24,34,28,23,100,88,56,30.36,30.18,4,0,6,0.00
2013-11-29,35,30,24,34,30,24,100,97,82,30.41,30.31,2,0,3,0.00
2013-11-30,47,39,32,44,37,32,100,93,73,30.43,30.24,9,1,12,0.00
2013-12-1,54,47,41,53,47,41,100,100,90,30.25,29.85,14,2,20,0.00
2013-12-2,46,40,35,46,37,31,100,89,69,30.03,29.84,24,9,32,0.00
2013-12-3,39,32,21,30,23,16,96,71,41,30.42,30.22,10,2,15,0.00
2013-12-4,33,24,16,21,16,12,100,74,45,30.50,30.39,8,1,10,0.00
2013-12-5,24,17,11,19,15,11,100,91,65,30.51,30.37,4,0,7,0.00
2013-12-6,19,17,15,18,17,15,100,99,91,30.44,30.28,13,1,13,0.00
2013-12-7,21,14,3,17,9,2,100,82,49,30.66,30.32,9,1,10,0.00
2013-12-8,19,8,0,11,6,0,100,92,55,30.79,30.60,3,0,7,0.00
2013-12-9,35,19,5,32,17,5,100,92,76,30.78,30.47,20,4,24,0.00
2013-12-10,37,32,24,34,31,24,100,96,86,30.56,30.46,19,5,28,0.00
2013-12-11,33,25,20,24,22,16,100,88,54,30.58,30.46,8,0,11,0.00
2013-12-12,30,23,17,27,22,17,100,94,73,30.48,30.26,3,0,5,0.00
2013-12-13,46,36,28,44,35,26,100,94,77,30.49,30.31,11,1,15,0.00
2013-12-14,42,37,35,42,37,35,100,99,89,30.50,30.39,3,0,4,0.00
2013-12-15,49,44,36,45,42,35,100,93,68,30.46,30.34,32,4,33,0.00
2013-12-16,50,41,33,44,39,33,100,92,65,30.50,30.34,16,1,18,0.00
2013-12-17,40,33,27,37,32,27,100,98,83,30.39,30.15,19,2,19,0.00
2013-12-18,45,39,33,39,36,28,100,90,70,30.18,30.00,18,6,19,0.00
2013-12-19,41,31,26,31,26,18,100,83,40,30.40,30.17,7,0,13,0.00
2013-12-20,46,37,28,44,34,24,100,89,65,30.25,29.75,34,11,41,0.00
2013-12-21,49,46,44,45,42,38,96,87,73,30.18,29.80,32,12,35,0.00
2013-12-22,50,47,43,47,45,41,100,92,84,30.33,30.17,27,10,29,0.00
2013-12-23,52,47,43,50,44,36,100,89,74,30.54,30.17,33,9,36,0.00
2013-12-24,47,37,27,38,34,27,100,87,60,30.65,30.51,18,1,21,0.00
2013-12-25,39,29,24,34,28,24,100,97,70,30.65,30.47,3,0,6,0.00
2013-12-26,36,28,25,34,27,25,100,98,79,30.55,30.37,3,0,3,0.00
2013-12-27,42,31,24,41,30,24,100,99,90,30.43,30.24,18,2,21,0.00
2013-12-28,45,36,28,40,34,28,100,93,66,30.61,30.35,16,2,18,0.00
2013-12-29,34,30,26,34,30,26,100,100,100,30.59,30.34,3,0,6,0.00
2013-12-30,36,32,30,34,32,30,100,98,87,30.37,30.27,9,0,11,0.00
2013-12-31,48,40,30,40,37,30,100,88,69,30.41,30.25,13,2,17,0.00
2014-1-1,44,36,30,40,35,30,100,97,75,30.52,30.38,8,0,12,0.00
2014-1-2,48,37,32,45,35,30,100,93,64,30.44,29.95,31,2,37,0.00